sensor_id;sensor_type;location;lat;lon;timestamp;P1;durP1;ratioP1;P2;durP2;ratioP2
10452;SDS011;5274;51.992;8.518;2024-01-07T00:01:07;20.33;;;16.43;;
10452;SDS011;5274;51.992;8.518;2024-01-07T00:03:35;17.60;;;14.43;;
10452;SDS011;5274;51.992;8.518;2024-01-07T00:06:00;20.37;;;16.03;;
10452;SDS011;5274;51.992;8.518;2024-01-07T00:08:26;17.90;;;14.57;;
10452;SDS011;5274;51.992;8.518;2024-01-07T00:10:52;19.80;;;16.27;;
10452;SDS011;5274;51.992;8.518;2024-01-07T00:13:18;17.50;;;15.23;;
10452;SDS011;5274;51.992;8.518;2024-01-07T00:15:44;21.77;;;15.90;;
10452;SDS011;5274;51.992;8.518;2024-01-07T00:18:10;19.20;;;16.50;;
10452;SDS011;5274;51.992;8.518;2024-01-07T00:20:36;21.13;;;16.00;;
10452;SDS011;5274;51.992;8.518;2024-01-07T00:23:02;21.70;;;15.33;;
10452;SDS011;5274;51.992;8.518;2024-01-07T00:25:28;17.90;;;16.03;;
10452;SDS011;5274;51.992;8.518;2024-01-07T00:27:54;19.90;;;15.97;;
10452;SDS011;5274;51.992;8.518;2024-01-07T00:30:20;23.50;;;16.03;;
10452;SDS011;5274;51.992;8.518;2024-01-07T00:32:46;27.07;;;17.97;;
10452;SDS011;5274;51.992;8.518;2024-01-07T00:35:12;19.93;;;16.20;;
10452;SDS011;5274;51.992;8.518;2024-01-07T00:37:38;16.63;;;14.23;;
10452;SDS011;5274;51.992;8.518;2024-01-07T00:40:04;17.27;;;14.53;;
10452;SDS011;5274;51.992;8.518;2024-01-07T00:42:30;17.93;;;16.03;;
10452;SDS011;5274;51.992;8.518;2024-01-07T00:44:56;18.27;;;15.70;;
10452;SDS011;5274;51.992;8.518;2024-01-07T00:47:22;17.40;;;14.80;;
10452;SDS011;5274;51.992;8.518;2024-01-07T00:49:48;19.23;;;15.33;;
10452;SDS011;5274;51.992;8.518;2024-01-07T00:52:14;18.00;;;14.97;;
10452;SDS011;5274;51.992;8.518;2024-01-07T00:54:40;15.97;;;14.27;;
10452;SDS011;5274;51.992;8.518;2024-01-07T00:57:06;19.97;;;15.10;;
10452;SDS011;5274;51.992;8.518;2024-01-07T00:59:32;16.93;;;15.13;;
10452;SDS011;5274;51.992;8.518;2024-01-07T01:01:57;16.80;;;14.70;;
10452;SDS011;5274;51.992;8.518;2024-01-07T01:04:23;17.50;;;15.37;;
10452;SDS011;5274;51.992;8.518;2024-01-07T01:06:49;18.27;;;15.33;;
10452;SDS011;5274;51.992;8.518;2024-01-07T01:09:15;18.50;;;16.20;;
10452;SDS011;5274;51.992;8.518;2024-01-07T01:11:41;17.43;;;15.07;;
10452;SDS011;5274;51.992;8.518;2024-01-07T01:14:07;20.17;;;15.23;;
10452;SDS011;5274;51.992;8.518;2024-01-07T01:16:33;17.23;;;14.27;;
10452;SDS011;5274;51.992;8.518;2024-01-07T01:18:59;16.83;;;13.50;;
10452;SDS011;5274;51.992;8.518;2024-01-07T01:21:25;17.33;;;13.63;;
10452;SDS011;5274;51.992;8.518;2024-01-07T01:23:51;15.23;;;13.60;;
10452;SDS011;5274;51.992;8.518;2024-01-07T01:26:16;13.80;;;12.40;;
10452;SDS011;5274;51.992;8.518;2024-01-07T01:28:42;14.27;;;12.77;;
10452;SDS011;5274;51.992;8.518;2024-01-07T01:31:12;15.33;;;13.73;;
10452;SDS011;5274;51.992;8.518;2024-01-07T01:33:38;15.03;;;12.93;;
10452;SDS011;5274;51.992;8.518;2024-01-07T01:36:04;16.47;;;13.00;;
10452;SDS011;5274;51.992;8.518;2024-01-07T01:38:31;15.87;;;13.23;;
10452;SDS011;5274;51.992;8.518;2024-01-07T01:40:57;14.17;;;12.67;;
10452;SDS011;5274;51.992;8.518;2024-01-07T01:43:26;14.23;;;12.17;;
10452;SDS011;5274;51.992;8.518;2024-01-07T01:45:53;13.50;;;12.03;;
10452;SDS011;5274;51.992;8.518;2024-01-07T01:48:19;13.53;;;12.33;;
10452;SDS011;5274;51.992;8.518;2024-01-07T01:50:45;14.60;;;12.70;;
10452;SDS011;5274;51.992;8.518;2024-01-07T01:53:12;14.67;;;13.17;;
10452;SDS011;5274;51.992;8.518;2024-01-07T01:55:38;14.80;;;13.20;;
10452;SDS011;5274;51.992;8.518;2024-01-07T01:58:04;14.60;;;13.10;;
10452;SDS011;5274;51.992;8.518;2024-01-07T02:00:30;15.10;;;13.10;;
10452;SDS011;5274;51.992;8.518;2024-01-07T02:02:56;14.77;;;12.40;;
10452;SDS011;5274;51.992;8.518;2024-01-07T02:05:22;14.30;;;12.90;;
10452;SDS011;5274;51.992;8.518;2024-01-07T02:07:48;14.00;;;12.60;;
10452;SDS011;5274;51.992;8.518;2024-01-07T02:10:14;14.10;;;12.60;;
10452;SDS011;5274;51.992;8.518;2024-01-07T02:12:40;16.57;;;12.63;;
10452;SDS011;5274;51.992;8.518;2024-01-07T02:15:06;17.27;;;12.67;;
10452;SDS011;5274;51.992;8.518;2024-01-07T02:17:32;14.67;;;12.33;;
10452;SDS011;5274;51.992;8.518;2024-01-07T02:19:58;14.23;;;12.73;;
10452;SDS011;5274;51.992;8.518;2024-01-07T02:22:24;14.87;;;12.53;;
10452;SDS011;5274;51.992;8.518;2024-01-07T02:24:50;14.63;;;12.97;;
10452;SDS011;5274;51.992;8.518;2024-01-07T02:27:16;15.03;;;13.37;;
10452;SDS011;5274;51.992;8.518;2024-01-07T02:29:42;13.37;;;11.93;;
10452;SDS011;5274;51.992;8.518;2024-01-07T02:32:07;15.70;;;12.17;;
10452;SDS011;5274;51.992;8.518;2024-01-07T02:34:33;12.77;;;11.47;;
10452;SDS011;5274;51.992;8.518;2024-01-07T02:36:59;14.40;;;11.87;;
10452;SDS011;5274;51.992;8.518;2024-01-07T02:39:25;13.60;;;11.60;;
10452;SDS011;5274;51.992;8.518;2024-01-07T02:41:51;13.77;;;12.27;;
10452;SDS011;5274;51.992;8.518;2024-01-07T02:44:17;13.67;;;12.33;;
10452;SDS011;5274;51.992;8.518;2024-01-07T02:46:43;13.10;;;11.83;;
10452;SDS011;5274;51.992;8.518;2024-01-07T02:49:11;13.77;;;12.20;;
10452;SDS011;5274;51.992;8.518;2024-01-07T02:51:37;14.63;;;12.77;;
10452;SDS011;5274;51.992;8.518;2024-01-07T02:54:03;14.93;;;12.43;;
10452;SDS011;5274;51.992;8.518;2024-01-07T02:56:28;14.30;;;12.43;;
10452;SDS011;5274;51.992;8.518;2024-01-07T02:58:54;16.03;;;13.17;;
10452;SDS011;5274;51.992;8.518;2024-01-07T03:01:24;14.93;;;12.97;;
10452;SDS011;5274;51.992;8.518;2024-01-07T03:03:50;14.47;;;12.90;;
10452;SDS011;5274;51.992;8.518;2024-01-07T03:06:16;17.03;;;13.07;;
10452;SDS011;5274;51.992;8.518;2024-01-07T03:08:42;15.67;;;12.93;;
10452;SDS011;5274;51.992;8.518;2024-01-07T03:11:08;15.50;;;13.90;;
10452;SDS011;5274;51.992;8.518;2024-01-07T03:13:34;16.77;;;13.50;;
10452;SDS011;5274;51.992;8.518;2024-01-07T03:16:00;14.33;;;12.67;;
10452;SDS011;5274;51.992;8.518;2024-01-07T03:18:27;16.83;;;13.53;;
10452;SDS011;5274;51.992;8.518;2024-01-07T03:20:56;16.17;;;13.87;;
10452;SDS011;5274;51.992;8.518;2024-01-07T03:23:22;15.30;;;13.80;;
10452;SDS011;5274;51.992;8.518;2024-01-07T03:25:48;18.03;;;14.47;;
10452;SDS011;5274;51.992;8.518;2024-01-07T03:28:13;14.87;;;13.27;;
10452;SDS011;5274;51.992;8.518;2024-01-07T03:30:40;18.10;;;14.07;;
10452;SDS011;5274;51.992;8.518;2024-01-07T03:33:06;14.27;;;12.77;;
10452;SDS011;5274;51.992;8.518;2024-01-07T03:35:32;15.87;;;13.70;;
10452;SDS011;5274;51.992;8.518;2024-01-07T03:37:58;14.77;;;13.17;;
10452;SDS011;5274;51.992;8.518;2024-01-07T03:40:24;18.13;;;13.23;;
10452;SDS011;5274;51.992;8.518;2024-01-07T03:42:50;15.73;;;13.40;;
10452;SDS011;5274;51.992;8.518;2024-01-07T03:45:16;14.70;;;12.87;;
10452;SDS011;5274;51.992;8.518;2024-01-07T03:47:41;15.63;;;12.80;;
10452;SDS011;5274;51.992;8.518;2024-01-07T03:50:07;16.70;;;12.57;;
10452;SDS011;5274;51.992;8.518;2024-01-07T03:52:33;15.27;;;12.67;;
10452;SDS011;5274;51.992;8.518;2024-01-07T03:55:00;17.97;;;12.83;;
10452;SDS011;5274;51.992;8.518;2024-01-07T03:57:26;14.50;;;12.20;;
10452;SDS011;5274;51.992;8.518;2024-01-07T03:59:52;15.03;;;13.23;;
10452;SDS011;5274;51.992;8.518;2024-01-07T04:02:18;12.97;;;11.87;;
10452;SDS011;5274;51.992;8.518;2024-01-07T04:04:44;14.10;;;12.70;;
10452;SDS011;5274;51.992;8.518;2024-01-07T04:07:10;12.13;;;10.87;;
10452;SDS011;5274;51.992;8.518;2024-01-07T04:09:35;12.67;;;11.47;;
10452;SDS011;5274;51.992;8.518;2024-01-07T04:12:02;15.10;;;12.63;;
10452;SDS011;5274;51.992;8.518;2024-01-07T04:14:28;13.90;;;12.50;;
10452;SDS011;5274;51.992;8.518;2024-01-07T04:16:54;13.20;;;11.80;;
10452;SDS011;5274;51.992;8.518;2024-01-07T04:19:20;13.23;;;11.93;;
10452;SDS011;5274;51.992;8.518;2024-01-07T04:21:46;13.83;;;12.53;;
10452;SDS011;5274;51.992;8.518;2024-01-07T04:24:12;13.53;;;12.10;;
10452;SDS011;5274;51.992;8.518;2024-01-07T04:26:38;15.23;;;13.07;;
10452;SDS011;5274;51.992;8.518;2024-01-07T04:29:04;14.47;;;12.30;;
10452;SDS011;5274;51.992;8.518;2024-01-07T04:31:31;12.73;;;11.43;;
10452;SDS011;5274;51.992;8.518;2024-01-07T04:33:57;13.07;;;11.67;;
10452;SDS011;5274;51.992;8.518;2024-01-07T04:36:23;13.30;;;11.47;;
10452;SDS011;5274;51.992;8.518;2024-01-07T04:38:49;12.83;;;11.23;;
10452;SDS011;5274;51.992;8.518;2024-01-07T04:41:15;14.20;;;11.93;;
10452;SDS011;5274;51.992;8.518;2024-01-07T04:43:42;12.63;;;11.43;;
10452;SDS011;5274;51.992;8.518;2024-01-07T04:46:08;12.57;;;11.27;;
10452;SDS011;5274;51.992;8.518;2024-01-07T04:48:35;13.03;;;11.67;;
10452;SDS011;5274;51.992;8.518;2024-01-07T04:51:01;12.77;;;11.47;;
10452;SDS011;5274;51.992;8.518;2024-01-07T04:53:27;13.70;;;11.93;;
10452;SDS011;5274;51.992;8.518;2024-01-07T04:55:53;14.90;;;11.40;;
10452;SDS011;5274;51.992;8.518;2024-01-07T04:58:19;12.87;;;11.57;;
10452;SDS011;5274;51.992;8.518;2024-01-07T05:00:45;14.07;;;12.60;;
10452;SDS011;5274;51.992;8.518;2024-01-07T05:03:11;13.63;;;12.23;;
10452;SDS011;5274;51.992;8.518;2024-01-07T05:05:37;12.93;;;11.63;;
10452;SDS011;5274;51.992;8.518;2024-01-07T05:08:03;13.03;;;11.63;;
10452;SDS011;5274;51.992;8.518;2024-01-07T05:10:29;16.47;;;11.63;;
10452;SDS011;5274;51.992;8.518;2024-01-07T05:12:55;16.50;;;12.10;;
10452;SDS011;5274;51.992;8.518;2024-01-07T05:15:21;16.87;;;11.83;;
10452;SDS011;5274;51.992;8.518;2024-01-07T05:17:47;16.33;;;11.80;;
10452;SDS011;5274;51.992;8.518;2024-01-07T05:20:14;12.90;;;11.57;;
10452;SDS011;5274;51.992;8.518;2024-01-07T05:22:41;12.87;;;11.33;;
10452;SDS011;5274;51.992;8.518;2024-01-07T05:25:07;12.83;;;11.53;;
10452;SDS011;5274;51.992;8.518;2024-01-07T05:27:34;13.87;;;11.27;;
10452;SDS011;5274;51.992;8.518;2024-01-07T05:29:59;13.33;;;10.87;;
10452;SDS011;5274;51.992;8.518;2024-01-07T05:32:25;13.77;;;10.77;;
10452;SDS011;5274;51.992;8.518;2024-01-07T05:34:51;11.80;;;10.47;;
10452;SDS011;5274;51.992;8.518;2024-01-07T05:37:17;12.00;;;10.63;;
10452;SDS011;5274;51.992;8.518;2024-01-07T05:39:43;11.80;;;10.23;;
10452;SDS011;5274;51.992;8.518;2024-01-07T05:42:09;11.70;;;10.50;;
10452;SDS011;5274;51.992;8.518;2024-01-07T05:44:35;12.97;;;10.57;;
10452;SDS011;5274;51.992;8.518;2024-01-07T05:47:01;12.23;;;10.83;;
10452;SDS011;5274;51.992;8.518;2024-01-07T05:49:27;12.17;;;10.97;;
10452;SDS011;5274;51.992;8.518;2024-01-07T05:51:53;12.00;;;10.53;;
10452;SDS011;5274;51.992;8.518;2024-01-07T05:54:19;11.43;;;10.30;;
10452;SDS011;5274;51.992;8.518;2024-01-07T05:56:45;11.80;;;10.67;;
10452;SDS011;5274;51.992;8.518;2024-01-07T05:59:11;12.40;;;11.03;;
10452;SDS011;5274;51.992;8.518;2024-01-07T06:01:37;11.00;;;9.90;;
10452;SDS011;5274;51.992;8.518;2024-01-07T06:04:03;10.73;;;9.63;;
10452;SDS011;5274;51.992;8.518;2024-01-07T06:06:29;11.27;;;10.00;;
10452;SDS011;5274;51.992;8.518;2024-01-07T06:08:55;11.60;;;9.70;;
10452;SDS011;5274;51.992;8.518;2024-01-07T06:11:21;14.43;;;10.83;;
10452;SDS011;5274;51.992;8.518;2024-01-07T06:13:47;11.77;;;10.57;;
10452;SDS011;5274;51.992;8.518;2024-01-07T06:16:13;11.57;;;10.03;;
10452;SDS011;5274;51.992;8.518;2024-01-07T06:18:39;11.13;;;10.13;;
10452;SDS011;5274;51.992;8.518;2024-01-07T06:21:05;11.43;;;10.30;;
10452;SDS011;5274;51.992;8.518;2024-01-07T06:23:34;10.47;;;9.57;;
10452;SDS011;5274;51.992;8.518;2024-01-07T06:26:02;10.57;;;9.47;;
10452;SDS011;5274;51.992;8.518;2024-01-07T06:28:28;11.13;;;10.00;;
10452;SDS011;5274;51.992;8.518;2024-01-07T06:30:54;10.40;;;9.50;;
10452;SDS011;5274;51.992;8.518;2024-01-07T06:33:20;11.03;;;9.93;;
10452;SDS011;5274;51.992;8.518;2024-01-07T06:35:46;11.10;;;9.77;;
10452;SDS011;5274;51.992;8.518;2024-01-07T06:38:12;11.27;;;10.17;;
10452;SDS011;5274;51.992;8.518;2024-01-07T06:40:39;10.17;;;9.10;;
10452;SDS011;5274;51.992;8.518;2024-01-07T06:43:05;10.50;;;9.40;;
10452;SDS011;5274;51.992;8.518;2024-01-07T06:45:31;10.10;;;9.20;;
10452;SDS011;5274;51.992;8.518;2024-01-07T06:47:57;10.57;;;9.67;;
10452;SDS011;5274;51.992;8.518;2024-01-07T06:50:23;10.53;;;9.53;;
10452;SDS011;5274;51.992;8.518;2024-01-07T06:52:49;12.80;;;9.93;;
10452;SDS011;5274;51.992;8.518;2024-01-07T06:55:15;10.50;;;9.50;;
10452;SDS011;5274;51.992;8.518;2024-01-07T06:57:41;10.50;;;9.50;;
10452;SDS011;5274;51.992;8.518;2024-01-07T07:00:07;10.17;;;9.20;;
10452;SDS011;5274;51.992;8.518;2024-01-07T07:02:33;10.27;;;9.17;;
10452;SDS011;5274;51.992;8.518;2024-01-07T07:04:59;10.63;;;9.30;;
10452;SDS011;5274;51.992;8.518;2024-01-07T07:07:25;10.10;;;9.10;;
10452;SDS011;5274;51.992;8.518;2024-01-07T07:09:51;10.27;;;9.27;;
10452;SDS011;5274;51.992;8.518;2024-01-07T07:12:17;12.23;;;9.53;;
10452;SDS011;5274;51.992;8.518;2024-01-07T07:14:43;9.27;;;8.37;;
10452;SDS011;5274;51.992;8.518;2024-01-07T07:17:09;8.93;;;8.23;;
10452;SDS011;5274;51.992;8.518;2024-01-07T07:19:35;9.17;;;8.40;;
10452;SDS011;5274;51.992;8.518;2024-01-07T07:22:01;8.63;;;7.77;;
10452;SDS011;5274;51.992;8.518;2024-01-07T07:24:27;8.13;;;7.43;;
10452;SDS011;5274;51.992;8.518;2024-01-07T07:26:53;8.13;;;7.53;;
10452;SDS011;5274;51.992;8.518;2024-01-07T07:29:19;11.40;;;8.47;;
10452;SDS011;5274;51.992;8.518;2024-01-07T07:31:45;9.43;;;8.10;;
10452;SDS011;5274;51.992;8.518;2024-01-07T07:34:10;9.10;;;8.37;;
10452;SDS011;5274;51.992;8.518;2024-01-07T07:36:37;8.90;;;8.30;;
10452;SDS011;5274;51.992;8.518;2024-01-07T07:39:04;9.07;;;8.17;;
10452;SDS011;5274;51.992;8.518;2024-01-07T07:41:30;8.40;;;7.80;;
10452;SDS011;5274;51.992;8.518;2024-01-07T07:43:56;8.93;;;7.97;;
10452;SDS011;5274;51.992;8.518;2024-01-07T07:46:22;9.00;;;8.30;;
10452;SDS011;5274;51.992;8.518;2024-01-07T07:48:48;8.60;;;7.90;;
10452;SDS011;5274;51.992;8.518;2024-01-07T07:51:14;10.03;;;8.33;;
10452;SDS011;5274;51.992;8.518;2024-01-07T07:53:40;8.33;;;7.73;;
10452;SDS011;5274;51.992;8.518;2024-01-07T07:56:06;8.47;;;7.87;;
10452;SDS011;5274;51.992;8.518;2024-01-07T07:58:33;8.97;;;8.27;;
10452;SDS011;5274;51.992;8.518;2024-01-07T08:00:59;8.77;;;8.07;;
10452;SDS011;5274;51.992;8.518;2024-01-07T08:03:25;8.90;;;8.00;;
10452;SDS011;5274;51.992;8.518;2024-01-07T08:05:52;9.30;;;8.60;;
10452;SDS011;5274;51.992;8.518;2024-01-07T08:08:17;8.70;;;7.90;;
10452;SDS011;5274;51.992;8.518;2024-01-07T08:10:43;8.30;;;7.77;;
10452;SDS011;5274;51.992;8.518;2024-01-07T08:13:09;8.27;;;7.67;;
10452;SDS011;5274;51.992;8.518;2024-01-07T08:15:35;8.20;;;7.50;;
10452;SDS011;5274;51.992;8.518;2024-01-07T08:18:02;8.50;;;7.80;;
10452;SDS011;5274;51.992;8.518;2024-01-07T08:20:28;9.27;;;8.43;;
10452;SDS011;5274;51.992;8.518;2024-01-07T08:22:54;8.83;;;8.13;;
10452;SDS011;5274;51.992;8.518;2024-01-07T08:25:20;8.07;;;7.47;;
10452;SDS011;5274;51.992;8.518;2024-01-07T08:27:47;7.80;;;7.30;;
10452;SDS011;5274;51.992;8.518;2024-01-07T08:30:13;8.53;;;7.83;;
10452;SDS011;5274;51.992;8.518;2024-01-07T08:32:40;8.33;;;7.50;;
10452;SDS011;5274;51.992;8.518;2024-01-07T08:35:06;8.43;;;7.50;;
10452;SDS011;5274;51.992;8.518;2024-01-07T08:37:32;7.90;;;7.30;;
10452;SDS011;5274;51.992;8.518;2024-01-07T08:39:58;8.13;;;7.43;;
10452;SDS011;5274;51.992;8.518;2024-01-07T08:42:24;8.00;;;7.40;;
10452;SDS011;5274;51.992;8.518;2024-01-07T08:44:50;7.60;;;7.10;;
10452;SDS011;5274;51.992;8.518;2024-01-07T08:47:16;7.40;;;6.80;;
10452;SDS011;5274;51.992;8.518;2024-01-07T08:49:42;7.43;;;6.83;;
10452;SDS011;5274;51.992;8.518;2024-01-07T08:52:08;7.50;;;6.90;;
10452;SDS011;5274;51.992;8.518;2024-01-07T08:54:35;7.03;;;6.47;;
10452;SDS011;5274;51.992;8.518;2024-01-07T08:57:01;7.07;;;6.57;;
10452;SDS011;5274;51.992;8.518;2024-01-07T08:59:27;7.20;;;6.60;;
10452;SDS011;5274;51.992;8.518;2024-01-07T09:01:53;7.03;;;6.50;;
10452;SDS011;5274;51.992;8.518;2024-01-07T09:04:19;7.33;;;6.83;;
10452;SDS011;5274;51.992;8.518;2024-01-07T09:06:45;7.47;;;6.93;;
10452;SDS011;5274;51.992;8.518;2024-01-07T09:09:11;7.87;;;7.30;;
10452;SDS011;5274;51.992;8.518;2024-01-07T09:11:37;6.90;;;6.50;;
10452;SDS011;5274;51.992;8.518;2024-01-07T09:14:03;7.13;;;6.67;;
10452;SDS011;5274;51.992;8.518;2024-01-07T09:16:29;7.67;;;7.00;;
10452;SDS011;5274;51.992;8.518;2024-01-07T09:18:55;7.30;;;6.70;;
10452;SDS011;5274;51.992;8.518;2024-01-07T09:21:21;7.27;;;6.77;;
10452;SDS011;5274;51.992;8.518;2024-01-07T09:23:50;7.80;;;7.20;;
10452;SDS011;5274;51.992;8.518;2024-01-07T09:26:16;7.30;;;6.80;;
10452;SDS011;5274;51.992;8.518;2024-01-07T09:28:42;7.10;;;6.60;;
10452;SDS011;5274;51.992;8.518;2024-01-07T09:31:08;7.23;;;6.63;;
10452;SDS011;5274;51.992;8.518;2024-01-07T09:33:34;7.27;;;6.77;;
10452;SDS011;5274;51.992;8.518;2024-01-07T09:36:00;7.17;;;6.60;;
10452;SDS011;5274;51.992;8.518;2024-01-07T09:38:26;7.00;;;6.57;;
10452;SDS011;5274;51.992;8.518;2024-01-07T09:40:52;7.23;;;6.73;;
10452;SDS011;5274;51.992;8.518;2024-01-07T09:43:18;7.10;;;6.67;;
10452;SDS011;5274;51.992;8.518;2024-01-07T09:45:46;7.27;;;6.70;;
10452;SDS011;5274;51.992;8.518;2024-01-07T09:48:13;7.27;;;6.70;;
10452;SDS011;5274;51.992;8.518;2024-01-07T09:50:39;6.83;;;6.37;;
10452;SDS011;5274;51.992;8.518;2024-01-07T09:53:05;7.70;;;7.00;;
10452;SDS011;5274;51.992;8.518;2024-01-07T09:55:33;6.60;;;6.20;;
10452;SDS011;5274;51.992;8.518;2024-01-07T09:57:59;7.40;;;6.80;;
10452;SDS011;5274;51.992;8.518;2024-01-07T10:00:26;7.33;;;6.83;;
10452;SDS011;5274;51.992;8.518;2024-01-07T10:02:53;7.40;;;7.00;;
10452;SDS011;5274;51.992;8.518;2024-01-07T10:05:19;8.50;;;6.93;;
10452;SDS011;5274;51.992;8.518;2024-01-07T10:07:45;7.50;;;7.07;;
10452;SDS011;5274;51.992;8.518;2024-01-07T10:10:12;7.67;;;6.97;;
10452;SDS011;5274;51.992;8.518;2024-01-07T10:12:38;6.80;;;6.40;;
10452;SDS011;5274;51.992;8.518;2024-01-07T10:15:04;7.17;;;6.63;;
10452;SDS011;5274;51.992;8.518;2024-01-07T10:17:30;7.17;;;6.67;;
10452;SDS011;5274;51.992;8.518;2024-01-07T10:19:56;6.93;;;6.53;;
10452;SDS011;5274;51.992;8.518;2024-01-07T10:22:22;8.60;;;7.90;;
10452;SDS011;5274;51.992;8.518;2024-01-07T10:24:51;8.03;;;7.40;;
10452;SDS011;5274;51.992;8.518;2024-01-07T10:27:17;7.50;;;7.10;;
10452;SDS011;5274;51.992;8.518;2024-01-07T10:29:43;7.50;;;6.90;;
10452;SDS011;5274;51.992;8.518;2024-01-07T10:32:10;7.57;;;7.00;;
10452;SDS011;5274;51.992;8.518;2024-01-07T10:34:36;6.90;;;6.40;;
10452;SDS011;5274;51.992;8.518;2024-01-07T10:37:03;7.73;;;7.13;;
10452;SDS011;5274;51.992;8.518;2024-01-07T10:39:30;6.70;;;6.20;;
10452;SDS011;5274;51.992;8.518;2024-01-07T10:41:56;9.87;;;6.53;;
10452;SDS011;5274;51.992;8.518;2024-01-07T10:44:26;6.80;;;6.30;;
10452;SDS011;5274;51.992;8.518;2024-01-07T10:46:55;8.20;;;7.70;;
10452;SDS011;5274;51.992;8.518;2024-01-07T10:49:22;8.03;;;7.43;;
10452;SDS011;5274;51.992;8.518;2024-01-07T10:52:02;7.50;;;6.97;;
10452;SDS011;5274;51.992;8.518;2024-01-07T10:54:29;11.47;;;9.80;;
10452;SDS011;5274;51.992;8.518;2024-01-07T10:57:00;8.17;;;7.60;;
10452;SDS011;5274;51.992;8.518;2024-01-07T10:59:28;9.03;;;8.33;;
10452;SDS011;5274;51.992;8.518;2024-01-07T11:01:54;6.77;;;6.30;;
10452;SDS011;5274;51.992;8.518;2024-01-07T11:04:23;9.73;;;9.03;;
10452;SDS011;5274;51.992;8.518;2024-01-07T11:06:57;6.20;;;5.80;;
10452;SDS011;5274;51.992;8.518;2024-01-07T11:09:28;8.33;;;7.83;;
10452;SDS011;5274;51.992;8.518;2024-01-07T11:11:58;7.30;;;6.70;;
10452;SDS011;5274;51.992;8.518;2024-01-07T11:14:36;7.80;;;7.10;;
10452;SDS011;5274;51.992;8.518;2024-01-07T11:17:04;7.57;;;7.07;;
10452;SDS011;5274;51.992;8.518;2024-01-07T11:19:30;6.77;;;6.30;;
10452;SDS011;5274;51.992;8.518;2024-01-07T11:24:40;6.70;;;6.20;;
10452;SDS011;5274;51.992;8.518;2024-01-07T11:27:10;7.60;;;7.00;;
10452;SDS011;5274;51.992;8.518;2024-01-07T11:29:36;7.67;;;7.17;;
10452;SDS011;5274;51.992;8.518;2024-01-07T11:32:02;7.77;;;7.17;;
10452;SDS011;5274;51.992;8.518;2024-01-07T11:34:43;7.87;;;7.20;;
10452;SDS011;5274;51.992;8.518;2024-01-07T11:37:12;9.97;;;9.17;;
10452;SDS011;5274;51.992;8.518;2024-01-07T11:39:41;7.97;;;7.27;;
10452;SDS011;5274;51.992;8.518;2024-01-07T11:42:08;7.83;;;7.23;;
10452;SDS011;5274;51.992;8.518;2024-01-07T11:44:34;8.50;;;7.80;;
10452;SDS011;5274;51.992;8.518;2024-01-07T11:47:04;7.70;;;7.00;;
10452;SDS011;5274;51.992;8.518;2024-01-07T11:49:31;7.90;;;7.30;;
10452;SDS011;5274;51.992;8.518;2024-01-07T11:51:57;9.67;;;8.77;;
10452;SDS011;5274;51.992;8.518;2024-01-07T11:54:23;8.53;;;7.83;;
10452;SDS011;5274;51.992;8.518;2024-01-07T11:56:49;8.07;;;7.47;;
10452;SDS011;5274;51.992;8.518;2024-01-07T11:59:15;8.30;;;7.50;;
10452;SDS011;5274;51.992;8.518;2024-01-07T12:01:41;8.77;;;8.20;;
10452;SDS011;5274;51.992;8.518;2024-01-07T12:04:07;9.70;;;8.90;;
10452;SDS011;5274;51.992;8.518;2024-01-07T12:06:34;7.70;;;7.20;;
10452;SDS011;5274;51.992;8.518;2024-01-07T12:09:00;8.10;;;7.40;;
10452;SDS011;5274;51.992;8.518;2024-01-07T12:11:26;7.73;;;7.03;;
10452;SDS011;5274;51.992;8.518;2024-01-07T12:13:52;8.07;;;7.30;;
10452;SDS011;5274;51.992;8.518;2024-01-07T12:16:19;8.00;;;7.30;;
10452;SDS011;5274;51.992;8.518;2024-01-07T12:18:45;7.60;;;7.10;;
10452;SDS011;5274;51.992;8.518;2024-01-07T12:21:13;7.70;;;7.07;;
10452;SDS011;5274;51.992;8.518;2024-01-07T12:23:47;8.20;;;7.37;;
10452;SDS011;5274;51.992;8.518;2024-01-07T12:26:13;7.30;;;6.80;;
10452;SDS011;5274;51.992;8.518;2024-01-07T12:28:39;7.30;;;6.80;;
10452;SDS011;5274;51.992;8.518;2024-01-07T12:31:05;7.80;;;7.23;;
10452;SDS011;5274;51.992;8.518;2024-01-07T12:33:31;7.47;;;6.77;;
10452;SDS011;5274;51.992;8.518;2024-01-07T12:35:58;7.90;;;7.30;;
10452;SDS011;5274;51.992;8.518;2024-01-07T12:38:24;21.10;;;13.43;;
10452;SDS011;5274;51.992;8.518;2024-01-07T12:40:50;12.73;;;9.07;;
10452;SDS011;5274;51.992;8.518;2024-01-07T12:43:17;7.30;;;6.90;;
10452;SDS011;5274;51.992;8.518;2024-01-07T12:45:43;6.67;;;6.27;;
10452;SDS011;5274;51.992;8.518;2024-01-07T12:48:11;7.50;;;6.90;;
10452;SDS011;5274;51.992;8.518;2024-01-07T12:50:37;8.30;;;7.50;;
10452;SDS011;5274;51.992;8.518;2024-01-07T12:53:03;7.30;;;6.80;;
10452;SDS011;5274;51.992;8.518;2024-01-07T12:55:30;7.30;;;6.70;;
10452;SDS011;5274;51.992;8.518;2024-01-07T12:57:56;7.23;;;6.50;;
10452;SDS011;5274;51.992;8.518;2024-01-07T13:00:23;7.43;;;6.83;;
10452;SDS011;5274;51.992;8.518;2024-01-07T13:02:49;7.93;;;7.23;;
10452;SDS011;5274;51.992;8.518;2024-01-07T13:05:16;7.67;;;6.97;;
10452;SDS011;5274;51.992;8.518;2024-01-07T13:07:42;7.67;;;7.07;;
10452;SDS011;5274;51.992;8.518;2024-01-07T13:10:08;7.80;;;7.10;;
10452;SDS011;5274;51.992;8.518;2024-01-07T13:12:37;8.83;;;8.10;;
10452;SDS011;5274;51.992;8.518;2024-01-07T13:15:03;7.83;;;7.23;;
10452;SDS011;5274;51.992;8.518;2024-01-07T13:17:29;8.07;;;7.37;;
10452;SDS011;5274;51.992;8.518;2024-01-07T13:19:55;9.30;;;7.60;;
10452;SDS011;5274;51.992;8.518;2024-01-07T13:22:21;7.83;;;7.23;;
10452;SDS011;5274;51.992;8.518;2024-01-07T13:24:47;7.87;;;7.07;;
10452;SDS011;5274;51.992;8.518;2024-01-07T13:27:14;9.53;;;8.63;;
10452;SDS011;5274;51.992;8.518;2024-01-07T13:29:40;8.70;;;8.00;;
10452;SDS011;5274;51.992;8.518;2024-01-07T13:32:06;9.73;;;8.83;;
10452;SDS011;5274;51.992;8.518;2024-01-07T13:34:32;8.30;;;7.60;;
10452;SDS011;5274;51.992;8.518;2024-01-07T13:36:58;7.80;;;7.20;;
10452;SDS011;5274;51.992;8.518;2024-01-07T13:39:24;7.90;;;7.20;;
10452;SDS011;5274;51.992;8.518;2024-01-07T13:41:50;7.97;;;7.37;;
10452;SDS011;5274;51.992;8.518;2024-01-07T13:44:16;7.63;;;7.03;;
10452;SDS011;5274;51.992;8.518;2024-01-07T13:46:45;7.87;;;7.27;;
10452;SDS011;5274;51.992;8.518;2024-01-07T13:49:12;7.93;;;7.33;;
10452;SDS011;5274;51.992;8.518;2024-01-07T13:51:38;7.13;;;6.63;;
10452;SDS011;5274;51.992;8.518;2024-01-07T13:54:04;7.27;;;6.70;;
10452;SDS011;5274;51.992;8.518;2024-01-07T13:56:31;7.33;;;6.83;;
10452;SDS011;5274;51.992;8.518;2024-01-07T13:58:56;10.97;;;8.57;;
10452;SDS011;5274;51.992;8.518;2024-01-07T14:01:22;7.97;;;7.27;;
10452;SDS011;5274;51.992;8.518;2024-01-07T14:03:48;7.43;;;6.83;;
10452;SDS011;5274;51.992;8.518;2024-01-07T14:06:14;7.97;;;7.27;;
10452;SDS011;5274;51.992;8.518;2024-01-07T14:08:40;7.17;;;6.73;;
10452;SDS011;5274;51.992;8.518;2024-01-07T14:11:06;7.10;;;6.50;;
10452;SDS011;5274;51.992;8.518;2024-01-07T14:13:32;7.20;;;6.70;;
10452;SDS011;5274;51.992;8.518;2024-01-07T14:15:59;7.20;;;6.67;;
10452;SDS011;5274;51.992;8.518;2024-01-07T14:18:25;7.83;;;7.13;;
10452;SDS011;5274;51.992;8.518;2024-01-07T14:20:51;7.23;;;6.67;;
10452;SDS011;5274;51.992;8.518;2024-01-07T14:23:17;7.40;;;6.57;;
10452;SDS011;5274;51.992;8.518;2024-01-07T14:25:43;7.07;;;6.53;;
10452;SDS011;5274;51.992;8.518;2024-01-07T14:28:09;7.30;;;6.80;;
10452;SDS011;5274;51.992;8.518;2024-01-07T14:30:35;7.63;;;6.93;;
10452;SDS011;5274;51.992;8.518;2024-01-07T14:33:01;7.47;;;6.93;;
10452;SDS011;5274;51.992;8.518;2024-01-07T14:35:27;7.70;;;7.00;;
10452;SDS011;5274;51.992;8.518;2024-01-07T14:37:55;7.17;;;6.57;;
10452;SDS011;5274;51.992;8.518;2024-01-07T14:40:23;6.33;;;5.83;;
10452;SDS011;5274;51.992;8.518;2024-01-07T14:42:49;6.90;;;6.40;;
10452;SDS011;5274;51.992;8.518;2024-01-07T14:45:18;7.67;;;7.07;;